Time;durP1;ratioP1;P1;durP2;ratioP2;P2;SDS_P1;SDS_P2;PMS_P1;PMS_P2;Temp;Humidity;BMP_temperature;BMP_pressure;BME280_temperature;BME280_humidity;BME280_pressure;Samples;Min_cycle;Max_cycle;Signal;HPM_P1;HPM_P2
2022/10/13 00:00:47;;;;;;;5.43;0.80;;;21.70;54.80;;;;;;5047984;28;20216;-73
2022/10/13 00:03:15;;;;;;;8.73;1.37;;;21.30;56.10;;;;;;5051280;28;20230;-71
2022/10/13 00:05:45;;;;;;;4.57;1.50;;;21.20;57.10;;;;;;5051621;28;20540;-69
2022/10/13 00:08:14;;;;;;;4.90;1.20;;;21.30;57.10;;;;;;5049893;28;20237;-70
2022/10/13 00:10:42;;;;;;;12.60;1.43;;;21.00;57.50;;;;;;5050085;28;20184;-69
2022/10/13 00:13:09;;;;;;;8.00;1.20;;;21.00;57.90;;;;;;5050228;28;20519;-69
2022/10/13 00:15:42;;;;;;;5.60;1.20;;;21.00;58.30;;;;;;5046100;28;20176;-71
2022/10/13 00:18:09;;;;;;;4.10;1.10;;;20.80;58.60;;;;;;5050607;28;20184;-67
2022/10/13 00:20:46;;;;;;;5.03;1.27;;;20.40;60.20;;;;;;5039407;28;20694;-69
2022/10/13 00:23:14;;;;;;;7.27;1.70;;;20.60;61.20;;;;;;5051614;28;20246;-68
2022/10/13 00:25:49;;;;;;;13.00;1.70;;;20.50;60.90;;;;;;5051045;28;20184;-70
2022/10/13 00:28:19;;;;;;;5.03;1.13;;;20.50;61.10;;;;;;5066012;28;20186;-71
2022/10/13 00:30:47;;;;;;;8.13;1.50;;;20.40;61.10;;;;;;5049246;28;20188;-71
2022/10/13 00:33:15;;;;;;;5.47;1.10;;;20.30;61.80;;;;;;5042763;28;20212;-70
2022/10/13 00:35:45;;;;;;;11.33;1.47;;;20.20;62.30;;;;;;5045765;28;20176;-68
2022/10/13 00:38:13;;;;;;;2.93;1.07;;;20.10;63.10;;;;;;5049602;28;20231;-70
2022/10/13 00:40:49;;;;;;;7.97;1.40;;;20.10;63.20;;;;;;5049584;28;20246;-69
2022/10/13 00:43:23;;;;;;;6.40;1.20;;;20.00;62.70;;;;;;5042610;28;20172;-70
2022/10/13 00:45:51;;;;;;;8.43;1.60;;;20.00;63.20;;;;;;5043856;28;20971;-68
2022/10/13 00:48:27;;;;;;;2.53;0.90;;;19.90;63.60;;;;;;5054413;28;20191;-71
2022/10/13 00:50:57;;;;;;;4.33;1.10;;;20.00;63.50;;;;;;5048867;28;20172;-69
2022/10/13 00:53:30;;;;;;;7.07;1.40;;;20.10;63.20;;;;;;5042014;28;20243;-68
2022/10/13 00:55:58;;;;;;;6.10;1.20;;;20.10;62.70;;;;;;5054470;28;20562;-72
2022/10/13 00:58:30;;;;;;;8.23;1.70;;;20.20;62.20;;;;;;5053381;28;20183;-67
2022/10/13 01:00:58;;;;;;;5.97;1.40;;;20.20;61.80;;;;;;5051432;28;20257;-69
2022/10/13 01:03:26;;;;;;;5.77;1.00;;;20.00;62.10;;;;;;5043000;28;20181;-70
2022/10/13 01:05:57;;;;;;;6.47;1.10;;;20.10;61.80;;;;;;5040714;28;20183;-68
2022/10/13 01:08:28;;;;;;;7.30;1.40;;;20.10;62.20;;;;;;5054061;28;20188;-69
2022/10/13 01:11:08;;;;;;;4.37;1.20;;;20.30;62.10;;;;;;5048132;28;20180;-68
2022/10/13 01:13:41;;;;;;;5.00;1.10;;;20.20;62.70;;;;;;5045265;28;20232;-71
2022/10/13 01:16:49;;;;;;;12.93;1.77;;;20.00;62.50;;;;;;5053877;28;20179;-69
2022/10/13 01:19:35;;;;;;;3.87;1.10;;;20.10;62.80;;;;;;5032832;28;20246;-68
2022/10/13 01:22:15;;;;;;;5.13;1.33;;;20.20;62.90;;;;;;5060990;28;20172;-69
2022/10/13 01:24:51;;;;;;;5.03;1.27;;;20.20;62.90;;;;;;5053207;28;20503;-68
2022/10/13 01:27:33;;;;;;;4.17;1.47;;;20.00;64.10;;;;;;5054955;28;20270;-68
2022/10/13 01:30:18;;;;;;;7.80;1.67;;;20.00;64.50;;;;;;5054016;28;20290;-71
2022/10/13 01:32:45;;;;;;;5.70;1.23;;;20.00;64.90;;;;;;5052612;28;20736;-70
2022/10/13 01:35:38;;;;;;;7.27;1.70;;;19.90;65.90;;;;;;5053743;28;20346;-69
2022/10/13 01:38:21;;;;;;;4.17;1.20;;;19.80;66.60;;;;;;5051258;28;20203;-71
2022/10/13 01:41:16;;;;;;;5.20;1.50;;;19.60;66.80;;;;;;5053501;28;20724;-69
2022/10/13 01:43:53;;;;;;;4.80;1.47;;;19.60;67.30;;;;;;5049750;28;20191;-70
2022/10/13 01:46:35;;;;;;;3.97;1.10;;;19.70;67.80;;;;;;5056484;28;20227;-71
2022/10/13 01:49:08;;;;;;;5.13;1.40;;;19.70;67.10;;;;;;5054761;28;20199;-71
2022/10/13 01:51:37;;;;;;;6.43;1.13;;;19.60;67.10;;;;;;5054363;28;20654;-69
2022/10/13 01:54:05;;;;;;;5.47;1.30;;;19.50;66.90;;;;;;5054972;28;20172;-70
2022/10/13 01:56:32;;;;;;;9.70;1.40;;;19.40;67.10;;;;;;5053365;28;20208;-68
2022/10/13 01:59:04;;;;;;;6.00;1.20;;;19.50;67.30;;;;;;5050300;28;20200;-68
2022/10/13 02:02:11;;;;;;;8.43;1.47;;;19.60;66.40;;;;;;5062947;28;20187;-68
2022/10/13 02:04:45;;;;;;;7.33;1.20;;;19.60;66.50;;;;;;5059039;28;20688;-68
2022/10/13 02:07:46;;;;;;;7.53;1.27;;;19.90;66.30;;;;;;5054293;28;20188;-67
2022/10/13 02:10:22;;;;;;;10.27;1.57;;;20.00;66.00;;;;;;5053909;28;20270;-70
2022/10/13 02:12:51;;;;;;;3.60;1.70;;;20.00;65.50;;;;;;5053587;28;20573;-69
2022/10/13 02:15:26;;;;;;;5.07;1.23;;;19.90;65.10;;;;;;5054104;28;20191;-67
2022/10/13 02:17:54;;;;;;;7.93;1.50;;;19.80;65.40;;;;;;5054146;28;20179;-67
2022/10/13 02:20:22;;;;;;;9.20;1.40;;;20.10;65.00;;;;;;5061063;28;20215;-69
2022/10/13 02:22:59;;;;;;;8.60;1.43;;;20.20;64.60;;;;;;5053833;28;20215;-68
2022/10/13 02:25:28;;;;;;;9.07;1.40;;;20.20;64.50;;;;;;5054013;28;20188;-68
2022/10/13 02:28:00;;;;;;;5.97;1.50;;;20.30;64.50;;;;;;5054552;28;20661;-71
2022/10/13 02:30:32;;;;;;;6.10;1.30;;;20.10;64.30;;;;;;5052507;28;20192;-69
2022/10/13 02:33:01;;;;;;;12.17;1.77;;;20.00;65.00;;;;;;5053892;28;20180;-68
2022/10/13 02:35:29;;;;;;;11.97;1.93;;;20.20;65.50;;;;;;5053006;28;20172;-67
2022/10/13 02:37:57;;;;;;;6.57;1.60;;;20.20;65.00;;;;;;5055618;28;20179;-69
2022/10/13 02:40:24;;;;;;;11.83;1.93;;;20.30;65.30;;;;;;5053719;28;20273;-70
2022/10/13 02:42:52;;;;;;;10.20;2.83;;;20.50;65.20;;;;;;5053189;28;20633;-67
2022/10/13 02:45:19;;;;;;;9.53;1.90;;;20.60;64.80;;;;;;5053450;28;20195;-67
2022/10/13 02:47:47;;;;;;;7.80;2.53;;;20.50;65.40;;;;;;5056848;28;20198;-68
2022/10/13 02:50:14;;;;;;;9.23;1.77;;;20.50;65.50;;;;;;5052754;28;20198;-69
2022/10/13 02:52:41;;;;;;;7.67;1.63;;;20.50;65.50;;;;;;5053356;28;20184;-66
2022/10/13 02:55:10;;;;;;;13.63;1.97;;;20.30;66.60;;;;;;5065749;28;20176;-70
2022/10/13 02:57:37;;;;;;;6.83;1.47;;;20.30;67.00;;;;;;5051788;28;20653;-70
2022/10/13 03:00:06;;;;;;;4.97;1.50;;;20.00;67.90;;;;;;5053152;28;20303;-69
2022/10/13 03:02:33;;;;;;;10.80;1.67;;;20.00;68.50;;;;;;5058207;28;20248;-69
2022/10/13 03:05:00;;;;;;;4.90;1.53;;;20.10;68.50;;;;;;5058834;28;20191;-68
2022/10/13 03:07:28;;;;;;;7.37;1.97;;;20.00;68.80;;;;;;5052388;28;20241;-67
2022/10/13 03:09:55;;;;;;;6.50;1.57;;;20.00;68.80;;;;;;5053147;28;20180;-66
2022/10/13 03:12:22;;;;;;;9.97;1.80;;;20.00;68.60;;;;;;5052287;28;20175;-67
2022/10/13 03:14:50;;;;;;;8.47;1.87;;;20.20;69.00;;;;;;5052699;28;20176;-70
2022/10/13 03:17:17;;;;;;;10.53;1.80;;;20.30;68.80;;;;;;5052973;28;20554;-68
2022/10/13 03:19:44;;;;;;;6.77;1.37;;;20.30;68.20;;;;;;5051767;28;20209;-68
2022/10/13 03:22:14;;;;;;;4.90;1.97;;;20.40;68.20;;;;;;5052470;28;20222;-67
2022/10/13 03:24:42;;;;;;;11.53;2.00;;;20.40;68.40;;;;;;5052343;28;20604;-69
2022/10/13 03:27:10;;;;;;;6.67;1.70;;;20.40;67.80;;;;;;5050536;28;20176;-70
2022/10/13 03:29:37;;;;;;;6.87;1.47;;;20.50;68.10;;;;;;5051140;28;20198;-67
2022/10/13 03:32:04;;;;;;;6.47;1.90;;;20.70;67.60;;;;;;5052614;28;20590;-70
2022/10/13 03:34:32;;;;;;;10.67;1.93;;;20.80;66.60;;;;;;5052410;28;20183;-67
2022/10/13 03:36:59;;;;;;;9.60;1.70;;;20.70;66.00;;;;;;5052242;28;20175;-66
2022/10/13 03:39:26;;;;;;;8.20;1.63;;;20.60;65.80;;;;;;5052658;28;20550;-69
2022/10/13 03:41:54;;;;;;;10.73;1.93;;;20.70;65.90;;;;;;5052330;28;20592;-69
2022/10/13 03:44:21;;;;;;;7.33;1.47;;;20.70;65.40;;;;;;5051824;28;20176;-68
2022/10/13 03:46:48;;;;;;;6.13;1.40;;;20.80;64.70;;;;;;5065101;28;20219;-68
2022/10/13 03:49:17;;;;;;;11.07;1.90;;;21.60;63.40;;;;;;5053337;28;20171;-69
2022/10/13 03:51:45;;;;;;;6.63;1.53;;;22.00;61.20;;;;;;5050973;28;20180;-70
2022/10/13 03:54:13;;;;;;;8.03;1.47;;;22.20;61.00;;;;;;5052375;28;20179;-67
2022/10/13 03:56:41;;;;;;;8.00;1.53;;;22.10;61.00;;;;;;5051402;28;20180;-69
2022/10/13 03:59:12;;;;;;;6.97;1.70;;;21.90;61.80;;;;;;5051516;28;20678;-69
2022/10/13 04:01:40;;;;;;;7.67;1.43;;;21.90;61.40;;;;;;5050411;28;20240;-70
2022/10/13 04:04:09;;;;;;;7.43;2.57;;;22.60;59.30;;;;;;5051557;28;20191;-74
2022/10/13 04:06:37;;;;;;;8.10;1.67;;;22.20;60.40;;;;;;5050846;28;20218;-70
2022/10/13 04:09:05;;;;;;;7.87;2.03;;;21.80;61.30;;;;;;5054332;28;20167;-71
2022/10/13 04:11:32;;;;;;;10.70;2.07;;;21.50;61.50;;;;;;5062974;28;20245;-71
2022/10/13 04:14:00;;;;;;;8.23;1.70;;;21.50;61.90;;;;;;5054055;28;20176;-71
2022/10/13 04:16:30;;;;;;;9.57;1.63;;;21.90;61.50;;;;;;5052454;28;20179;-72
2022/10/13 04:19:02;;;;;;;6.77;1.63;;;22.00;60.50;;;;;;5052077;28;20212;-72
2022/10/13 04:21:32;;;;;;;7.70;1.83;;;22.40;59.50;;;;;;5059660;28;20690;-72
2022/10/13 04:24:00;;;;;;;3.50;1.23;;;22.90;57.50;;;;;;5049137;28;20674;-72
2022/10/13 04:26:30;;;;;;;5.80;1.53;;;23.00;56.70;;;;;;5053774;28;20187;-72
2022/10/13 04:28:58;;;;;;;6.30;1.43;;;22.80;57.20;;;;;;5056234;28;20188;-70
2022/10/13 04:31:27;;;;;;;7.53;1.50;;;22.80;57.90;;;;;;5056079;28;20183;-72
2022/10/13 04:33:55;;;;;;;10.20;2.30;;;22.70;57.80;;;;;;5056317;28;20508;-74
2022/10/13 04:36:22;;;;;;;9.87;2.07;;;22.70;57.80;;;;;;5055587;28;20211;-72
2022/10/13 04:38:51;;;;;;;11.90;1.60;;;22.80;57.80;;;;;;5049465;28;20761;-75
2022/10/13 04:41:19;;;;;;;9.13;1.87;;;23.00;57.00;;;;;;5050955;28;20184;-71
2022/10/13 04:43:51;;;;;;;5.07;1.40;;;23.10;57.10;;;;;;5052885;28;20537;-73
2022/10/13 04:46:22;;;;;;;7.60;1.60;;;22.80;57.20;;;;;;5048533;28;20220;-69
2022/10/13 04:48:50;;;;;;;8.03;1.60;;;22.60;57.20;;;;;;5041397;28;20192;-70
2022/10/13 04:51:22;;;;;;;6.67;1.70;;;22.30;58.90;;;;;;5042876;28;20192;-72
2022/10/13 04:53:58;;;;;;;7.93;1.70;;;22.20;59.10;;;;;;5049106;28;20173;-74
2022/10/13 04:56:26;;;;;;;8.50;1.60;;;22.20;59.80;;;;;;5049800;28;20262;-69
2022/10/13 04:58:53;;;;;;;8.23;1.97;;;22.10;60.40;;;;;;5051851;28;20266;-73
2022/10/13 05:01:23;;;;;;;7.90;1.83;;;22.10;61.00;;;;;;5050324;28;20195;-77
2022/10/13 05:03:55;;;;;;;8.47;2.10;;;21.90;61.70;;;;;;5055199;28;20176;-69
2022/10/13 05:06:28;;;;;;;8.80;2.00;;;21.90;61.50;;;;;;5053248;28;20183;-72
2022/10/13 05:08:56;;;;;;;8.43;2.00;;;22.00;61.30;;;;;;5054133;28;20654;-68
2022/10/13 05:11:25;;;;;;;7.77;1.97;;;22.40;59.70;;;;;;5055419;28;20183;-73
2022/10/13 05:13:53;;;;;;;14.83;5.40;;;22.50;58.70;;;;;;5041062;28;20191;-70
2022/10/13 05:16:21;;;;;;;13.30;1.97;;;22.40;58.30;;;;;;5052054;28;20237;-71
2022/10/13 05:18:50;;;;;;;6.90;1.80;;;22.30;58.20;;;;;;5058556;28;20207;-72
2022/10/13 05:21:23;;;;;;;9.67;1.73;;;21.80;59.80;;;;;;5041410;28;20650;-70
2022/10/13 05:23:54;;;;;;;8.37;1.93;;;21.60;61.40;;;;;;5045492;28;20544;-70
2022/10/13 05:26:27;;;;;;;8.67;2.23;;;21.60;62.50;;;;;;5049260;28;20184;-70
2022/10/13 05:28:56;;;;;;;8.40;2.13;;;21.40;63.80;;;;;;5050169;28;20642;-72
2022/10/13 05:31:25;;;;;;;8.63;2.37;;;21.30;64.30;;;;;;5047423;28;20184;-70
2022/10/13 05:33:53;;;;;;;7.67;1.97;;;21.20;64.30;;;;;;5054879;28;20267;-70
2022/10/13 05:36:23;;;;;;;11.30;2.33;;;21.10;63.70;;;;;;5052590;28;20207;-69
2022/10/13 05:38:55;;;;;;;11.60;2.13;;;21.50;63.40;;;;;;5049870;28;20242;-69
2022/10/13 05:41:23;;;;;;;9.07;2.30;;;21.70;61.00;;;;;;5051311;28;20176;-70
2022/10/13 05:44:02;;;;;;;8.57;1.70;;;21.80;60.30;;;;;;5053325;28;20179;-71
2022/10/13 05:46:30;;;;;;;9.47;1.70;;;22.30;59.30;;;;;;5044613;28;20239;-69
2022/10/13 05:48:57;;;;;;;9.30;2.00;;;22.30;59.10;;;;;;5043830;28;20191;-70
2022/10/13 05:51:34;;;;;;;13.23;2.40;;;22.20;59.50;;;;;;5053497;28;20230;-71
2022/10/13 05:54:05;;;;;;;13.70;2.13;;;22.40;59.40;;;;;;5054953;28;20214;-68
2022/10/13 05:56:37;;;;;;;6.97;1.90;;;22.70;59.20;;;;;;5054383;28;20238;-67
2022/10/13 05:59:08;;;;;;;11.43;2.00;;;22.80;59.30;;;;;;5054194;28;20608;-68
2022/10/13 06:01:39;;;;;;;9.27;2.00;;;22.80;59.60;;;;;;5054662;28;20263;-69
2022/10/13 06:04:11;;;;;;;8.33;2.03;;;22.70;60.40;;;;;;5054150;28;20237;-72
2022/10/13 06:06:39;;;;;;;12.00;2.33;;;22.80;60.00;;;;;;5053572;28;20676;-70
2022/10/13 06:09:06;;;;;;;15.33;2.83;;;22.30;61.60;;;;;;5054299;28;20176;-70
2022/10/13 06:11:34;;;;;;;11.27;2.03;;;22.20;62.70;;;;;;5053960;28;20183;-71
2022/10/13 06:14:01;;;;;;;13.57;2.63;;;22.00;64.40;;;;;;5054016;28;20187;-70
2022/10/13 06:16:28;;;;;;;12.30;2.50;;;21.90;64.90;;;;;;5054090;28;20214;-71
2022/10/13 06:18:56;;;;;;;14.43;2.73;;;21.30;67.30;;;;;;5054228;28;20638;-72
2022/10/13 06:21:27;;;;;;;12.07;2.30;;;21.00;68.90;;;;;;5053973;28;20183;-70
2022/10/13 06:23:54;;;;;;;13.17;2.13;;;20.80;70.60;;;;;;5054330;28;20199;-70
2022/10/13 06:26:21;;;;;;;16.67;2.83;;;20.60;71.50;;;;;;5050267;28;20180;-72
2022/10/13 06:28:49;;;;;;;17.20;2.30;;;20.30;73.60;;;;;;5049008;28;20176;-75
2022/10/13 06:31:16;;;;;;;13.93;2.30;;;20.20;73.80;;;;;;5038824;28;20191;-72
2022/10/13 06:33:44;;;;;;;14.97;2.60;;;20.10;74.60;;;;;;5048171;28;20219;-72
2022/10/13 06:36:11;;;;;;;11.93;2.07;;;20.10;74.90;;;;;;5053440;28;20704;-70
2022/10/13 06:38:38;;;;;;;11.67;2.40;;;19.90;74.90;;;;;;5053439;28;20234;-72
2022/10/13 06:41:06;;;;;;;17.70;2.40;;;20.00;75.50;;;;;;5049781;28;20184;-72
2022/10/13 06:43:33;;;;;;;15.97;2.60;;;19.90;76.00;;;;;;5047375;28;20192;-70
2022/10/13 06:46:01;;;;;;;12.40;2.57;;;19.90;76.10;;;;;;5041377;28;20234;-71
2022/10/13 06:48:29;;;;;;;15.17;2.30;;;19.90;76.30;;;;;;5054377;28;20299;-72
2022/10/13 06:51:00;;;;;;;17.70;2.60;;;19.80;76.30;;;;;;5060640;28;20183;-71
2022/10/13 06:53:27;;;;;;;16.43;2.27;;;19.80;76.70;;;;;;5064327;28;20608;-70
2022/10/13 06:56:02;;;;;;;17.70;3.03;;;19.80;76.70;;;;;;5033760;28;20540;-71
2022/10/13 06:58:29;;;;;;;14.23;2.50;;;19.80;76.90;;;;;;5040477;28;20256;-72
2022/10/13 07:00:57;;;;;;;15.17;2.63;;;19.70;77.20;;;;;;5047786;28;20211;-70
2022/10/13 07:03:25;;;;;;;10.63;2.87;;;19.60;77.50;;;;;;5052961;28;20646;-69
2022/10/13 07:05:52;;;;;;;14.77;2.97;;;19.60;77.70;;;;;;5048517;28;20191;-72
2022/10/13 07:08:20;;;;;;;15.80;2.20;;;19.70;77.90;;;;;;5051416;28;20195;-70
2022/10/13 07:10:47;;;;;;;17.97;2.37;;;19.50;78.00;;;;;;5052436;28;20180;-70
2022/10/13 07:13:15;;;;;;;12.53;2.10;;;19.50;78.10;;;;;;5052759;28;20184;-69
2022/10/13 07:15:42;;;;;;;13.97;2.20;;;19.50;78.00;;;;;;5053039;28;20215;-70
2022/10/13 07:18:09;;;;;;;13.83;2.47;;;19.40;77.80;;;;;;5048685;28;20195;-71
2022/10/13 07:20:37;;;;;;;14.00;2.20;;;19.40;78.10;;;;;;5045460;28;20215;-70
2022/10/13 07:23:04;;;;;;;13.70;2.43;;;19.30;78.30;;;;;;5052789;28;20172;-69
2022/10/13 07:25:32;;;;;;;9.73;2.30;;;19.30;78.70;;;;;;5048546;28;20193;-70
2022/10/13 07:27:59;;;;;;;15.57;2.77;;;19.30;79.00;;;;;;5043201;28;20190;-70
2022/10/13 07:30:27;;;;;;;16.67;2.63;;;19.20;79.20;;;;;;5070165;28;20178;-71
2022/10/13 07:32:54;;;;;;;15.43;2.43;;;19.20;79.40;;;;;;5036096;28;20218;-70
2022/10/13 07:35:24;;;;;;;16.37;3.20;;;19.20;79.80;;;;;;5046477;28;20184;-71
2022/10/13 07:37:52;;;;;;;16.50;3.33;;;19.20;79.80;;;;;;5052212;28;20168;-70
2022/10/13 07:40:20;;;;;;;18.80;2.97;;;19.20;80.00;;;;;;5047368;28;20699;-70
2022/10/13 07:42:47;;;;;;;15.13;2.67;;;19.10;79.60;;;;;;5049786;28;20597;-73
2022/10/13 07:45:15;;;;;;;11.67;2.80;;;19.10;79.60;;;;;;5051816;28;20191;-71
2022/10/13 07:47:42;;;;;;;11.17;2.77;;;19.10;79.30;;;;;;5051184;28;20685;-73
2022/10/13 07:50:10;;;;;;;8.73;2.33;;;19.00;79.10;;;;;;5051593;28;20722;-72
2022/10/13 07:52:38;;;;;;;24.87;2.60;;;19.10;79.20;;;;;;5050879;28;20184;-73
2022/10/13 07:55:06;;;;;;;18.33;3.17;;;19.00;79.40;;;;;;5038888;28;20210;-71
2022/10/13 07:57:33;;;;;;;12.97;2.93;;;18.90;79.70;;;;;;5048029;28;20180;-70
2022/10/13 08:00:01;;;;;;;20.53;2.90;;;18.90;80.00;;;;;;5049863;28;20626;-70
2022/10/13 08:02:29;;;;;;;14.67;3.20;;;18.90;80.40;;;;;;5049839;28;20180;-70
2022/10/13 08:04:56;;;;;;;16.93;3.47;;;18.90;80.70;;;;;;5050106;28;20180;-70
2022/10/13 08:07:24;;;;;;;13.60;2.53;;;18.90;80.90;;;;;;5047666;28;20184;-69
2022/10/13 08:09:51;;;;;;;20.23;2.70;;;18.90;81.10;;;;;;5045016;28;20560;-71
2022/10/13 08:12:18;;;;;;;16.37;2.83;;;18.90;81.20;;;;;;5043218;28;20176;-69
2022/10/13 08:14:49;;;;;;;16.67;3.03;;;18.90;81.40;;;;;;5052300;28;20184;-70
2022/10/13 08:17:16;;;;;;;16.93;3.77;;;18.80;81.70;;;;;;5052437;28;20175;-71
2022/10/13 08:19:43;;;;;;;16.63;3.33;;;18.90;81.80;;;;;;5052286;28;20246;-71
2022/10/13 08:22:11;;;;;;;18.43;3.13;;;18.90;81.90;;;;;;5052140;28;20176;-72
2022/10/13 08:24:38;;;;;;;21.30;3.50;;;18.90;81.80;;;;;;5044671;28;20191;-70
2022/10/13 08:27:06;;;;;;;18.70;3.33;;;18.80;82.10;;;;;;5051299;28;20664;-69
2022/10/13 08:29:33;;;;;;;16.07;3.23;;;18.80;82.30;;;;;;5051875;28;20183;-69
2022/10/13 08:32:00;;;;;;;16.80;3.90;;;18.80;82.60;;;;;;5051926;28;20541;-70
2022/10/13 08:34:28;;;;;;;15.63;3.20;;;18.80;82.80;;;;;;5050322;28;20583;-72
2022/10/13 08:36:56;;;;;;;17.90;3.30;;;18.80;83.00;;;;;;5051985;28;20242;-68
2022/10/13 08:39:24;;;;;;;21.03;3.67;;;18.80;83.20;;;;;;5051880;28;20208;-69
2022/10/13 08:41:52;;;;;;;21.53;3.10;;;18.80;83.40;;;;;;5051910;28;20188;-68
2022/10/13 08:44:29;;;;;;;18.27;3.47;;;18.80;83.50;;;;;;5052030;28;20176;-68
2022/10/13 08:47:13;;;;;;;16.40;3.30;;;18.80;83.60;;;;;;5039368;28;20234;-70
2022/10/13 08:49:41;;;;;;;21.73;3.93;;;18.80;83.80;;;;;;5051573;28;20264;-67
2022/10/13 08:52:25;;;;;;;18.97;3.63;;;18.80;84.10;;;;;;5046111;28;20632;-70
2022/10/13 08:54:54;;;;;;;13.90;3.87;;;18.80;84.20;;;;;;5040027;28;20641;-68
2022/10/13 08:57:22;;;;;;;13.63;3.07;;;18.80;84.30;;;;;;5051735;28;20184;-69
2022/10/13 08:59:51;;;;;;;14.73;3.03;;;18.80;84.50;;;;;;5050334;28;20593;-69
2022/10/13 09:02:30;;;;;;;23.07;3.80;;;18.80;84.50;;;;;;5051768;28;20172;-70
2022/10/13 09:05:00;;;;;;;16.50;2.73;;;18.80;84.70;;;;;;5051861;28;20271;-69
2022/10/13 09:07:34;;;;;;;19.67;3.90;;;18.80;84.80;;;;;;5052095;28;20527;-69
2022/10/13 09:10:01;;;;;;;23.53;3.87;;;18.80;85.00;;;;;;5049810;28;20266;-68
2022/10/13 09:12:30;;;;;;;17.40;3.33;;;18.80;85.10;;;;;;5062899;28;20176;-71
2022/10/13 09:15:08;;;;;;;24.63;3.97;;;18.80;85.10;;;;;;5054897;28;20282;-71
2022/10/13 09:17:38;;;;;;;21.87;4.43;;;18.80;85.10;;;;;;5054954;28;20295;-72
2022/10/13 09:20:28;;;;;;;21.23;4.50;;;18.80;85.30;;;;;;5054648;28;20332;-69
2022/10/13 09:23:15;;;;;;;18.57;3.57;;;18.80;85.30;;;;;;5042472;28;20263;-71
2022/10/13 09:25:47;;;;;;;20.17;3.93;;;18.80;85.00;;;;;;5054915;28;20186;-71
2022/10/13 09:28:25;;;;;;;24.47;4.00;;;18.80;85.00;;;;;;5055359;28;20693;-70
2022/10/13 09:31:05;;;;;;;24.63;4.40;;;18.80;84.80;;;;;;5054406;28;20235;-70
2022/10/13 09:33:37;;;;;;;22.67;3.83;;;18.80;84.80;;;;;;5054748;28;20180;-69
2022/10/13 09:36:09;;;;;;;20.47;3.73;;;18.80;84.80;;;;;;5054405;28;20746;-68
2022/10/13 09:38:38;;;;;;;14.77;2.93;;;18.80;84.90;;;;;;5053129;28;20188;-69
2022/10/13 09:41:08;;;;;;;14.47;3.47;;;18.80;84.40;;;;;;5051483;28;20223;-70
2022/10/13 09:43:37;;;;;;;18.60;3.70;;;18.80;83.90;;;;;;5054805;28;20184;-69
2022/10/13 09:46:19;;;;;;;20.00;3.27;;;18.70;82.90;;;;;;5052599;28;20655;-71
2022/10/13 09:49:03;;;;;;;18.67;4.03;;;18.70;83.10;;;;;;5053222;28;20586;-69
2022/10/13 09:51:33;;;;;;;14.57;2.80;;;18.70;83.10;;;;;;5054523;28;20564;-70
2022/10/13 09:54:01;;;;;;;15.93;3.47;;;18.70;83.10;;;;;;5054866;28;20180;-68
2022/10/13 09:56:51;;;;;;;24.60;3.37;;;18.70;83.10;;;;;;5048259;28;20286;-69
2022/10/13 09:59:21;;;;;;;15.17;2.97;;;18.70;83.40;;;;;;5052998;28;20219;-69
2022/10/13 10:01:50;;;;;;;22.27;3.63;;;18.70;83.40;;;;;;5058435;28;20172;-70
2022/10/13 10:04:23;;;;;;;14.37;2.93;;;18.70;83.50;;;;;;5052845;28;20198;-69
2022/10/13 10:06:50;;;;;;;18.60;3.13;;;18.70;83.60;;;;;;5052970;28;20180;-69
2022/10/13 10:09:26;;;;;;;16.67;3.47;;;18.70;83.70;;;;;;5054405;28;20191;-70
2022/10/13 10:11:57;;;;;;;12.20;2.77;;;18.70;83.80;;;;;;5054208;28;20180;-69
2022/10/13 10:14:31;;;;;;;23.50;7.00;;;18.70;84.00;;;;;;5053883;28;20237;-69
2022/10/13 10:17:42;;;;;;;22.17;5.30;;;18.70;84.20;;;;;;5051726;28;20180;-72
2022/10/13 10:20:56;;;;;;;17.73;3.63;;;18.70;84.30;;;;;;5032044;28;20683;-70
2022/10/13 10:23:39;;;;;;;13.97;2.83;;;18.70;84.50;;;;;;5010611;28;20922;-71
2022/10/13 10:26:19;;;;;;;20.13;3.77;;;18.70;84.70;;;;;;5029402;28;20611;-68
2022/10/13 10:29:01;;;;;;;21.30;3.43;;;18.70;84.70;;;;;;5047687;28;20540;-69
2022/10/13 10:32:14;;;;;;;19.83;3.53;;;18.70;84.70;;;;;;5044967;28;20245;-70
2022/10/13 10:35:19;;;;;;;20.50;3.13;;;18.70;84.50;;;;;;5044843;28;20688;-71
2022/10/13 10:38:10;;;;;;;16.30;3.43;;;18.70;84.80;;;;;;5045519;28;20175;-72
2022/10/13 10:41:13;;;;;;;26.27;3.93;;;18.70;84.80;;;;;;5046324;28;20211;-69
2022/10/13 10:44:05;;;;;;;23.30;3.63;;;18.70;85.00;;;;;;5050688;28;20180;-69
2022/10/13 10:46:36;;;;;;;15.97;3.30;;;18.70;84.90;;;;;;5052186;28;20215;-70
2022/10/13 10:49:28;;;;;;;17.90;3.47;;;18.70;84.90;;;;;;5052394;28;20176;-70
2022/10/13 10:51:56;;;;;;;20.67;3.67;;;18.70;85.20;;;;;;5053397;28;20237;-72
2022/10/13 10:54:30;;;;;;;21.47;3.90;;;18.70;85.20;;;;;;5053600;28;20184;-71
2022/10/13 10:57:24;;;;;;;15.97;3.03;;;18.70;85.10;;;;;;5051752;28;20183;-71
2022/10/13 11:00:06;;;;;;;17.80;4.27;;;18.70;85.30;;;;;;5052943;28;20215;-71
2022/10/13 11:02:43;;;;;;;25.07;3.77;;;18.70;85.40;;;;;;5052804;28;20178;-70
2022/10/13 11:05:11;;;;;;;19.57;3.37;;;18.80;85.50;;;;;;5052891;28;20181;-72
2022/10/13 11:07:45;;;;;;;22.93;3.87;;;18.70;85.30;;;;;;5045991;28;20306;-71
2022/10/13 11:10:19;;;;;;;19.97;3.63;;;18.70;85.50;;;;;;5051970;28;20191;-71
2022/10/13 11:12:54;;;;;;;21.17;3.53;;;18.70;85.50;;;;;;5045497;28;20721;-70
2022/10/13 11:15:29;;;;;;;26.20;4.50;;;18.70;85.50;;;;;;5038659;28;20167;-71
2022/10/13 11:17:57;;;;;;;21.17;3.53;;;18.70;85.40;;;;;;5038731;28;20645;-72
2022/10/13 11:20:33;;;;;;;21.77;3.77;;;18.70;85.70;;;;;;5052518;28;20206;-73
2022/10/13 11:23:00;;;;;;;17.07;3.30;;;18.70;85.80;;;;;;5052002;28;20537;-72
2022/10/13 11:25:43;;;;;;;21.47;3.87;;;18.60;85.80;;;;;;5037479;28;20180;-72
2022/10/13 11:28:24;;;;;;;27.17;3.73;;;18.70;85.90;;;;;;5051763;28;20692;-70
2022/10/13 11:31:31;;;;;;;22.47;4.33;;;18.60;85.90;;;;;;5046572;28;20180;-71
2022/10/13 11:34:01;;;;;;;20.27;4.43;;;18.60;86.00;;;;;;5035046;28;20203;-72
2022/10/13 11:36:36;;;;;;;17.30;3.73;;;18.60;85.90;;;;;;5047436;28;20183;-72
2022/10/13 11:39:06;;;;;;;20.10;3.53;;;18.60;86.00;;;;;;5052161;28;20266;-72
2022/10/13 11:41:51;;;;;;;20.20;4.03;;;18.60;85.90;;;;;;5050915;28;20636;-70
2022/10/13 11:44:24;;;;;;;16.07;3.77;;;18.60;85.70;;;;;;5052626;28;20202;-73
2022/10/13 11:47:27;;;;;;;24.00;5.13;;;18.60;85.60;;;;;;5049647;28;20577;-71
2022/10/13 11:50:03;;;;;;;27.10;4.73;;;18.70;85.60;;;;;;5030649;28;20199;-73
2022/10/13 11:53:19;;;;;;;19.37;3.60;;;18.60;85.90;;;;;;5048423;28;20274;-70
2022/10/13 11:55:57;;;;;;;22.30;4.03;;;18.60;85.90;;;;;;5045411;28;20191;-73
2022/10/13 11:58:30;;;;;;;23.30;4.33;;;18.60;85.60;;;;;;5046242;28;20688;-72
2022/10/13 12:01:06;;;;;;;25.67;3.97;;;18.60;85.80;;;;;;5049182;28;20685;-71
2022/10/13 12:03:40;;;;;;;30.00;4.97;;;18.60;85.80;;;;;;5049965;28;20186;-70
2022/10/13 12:06:25;;;;;;;23.17;4.10;;;18.60;85.80;;;;;;5052292;28;20636;-71
2022/10/13 12:08:53;;;;;;;23.47;4.50;;;18.60;85.90;;;;;;5051538;28;20182;-70
2022/10/13 12:11:37;;;;;;;23.10;4.07;;;18.50;85.90;;;;;;5052190;28;20180;-70
2022/10/13 12:14:16;;;;;;;21.53;3.63;;;18.50;85.90;;;;;;5048881;28;20176;-71
2022/10/13 12:16:55;;;;;;;27.90;4.17;;;18.50;85.40;;;;;;5051166;28;20646;-72
2022/10/13 12:19:26;;;;;;;17.70;4.13;;;18.50;85.20;;;;;;5039681;28;20205;-72
2022/10/13 12:21:56;;;;;;;25.27;3.80;;;18.50;85.10;;;;;;5052181;28;20186;-71
2022/10/13 12:24:26;;;;;;;21.07;3.83;;;18.50;84.90;;;;;;5042180;28;20651;-70
2022/10/13 12:26:55;;;;;;;25.43;4.07;;;18.50;85.00;;;;;;5051487;28;20550;-70
2022/10/13 12:29:28;;;;;;;20.33;4.60;;;18.50;84.90;;;;;;5054114;28;20171;-70
2022/10/13 12:31:57;;;;;;;16.30;3.90;;;18.50;84.80;;;;;;5051331;28;20271;-69
2022/10/13 12:34:30;;;;;;;23.77;4.97;;;18.50;84.40;;;;;;5052088;28;20285;-72
2022/10/13 12:37:29;;;;;;;22.90;4.17;;;18.50;84.50;;;;;;5045302;28;20196;-71
2022/10/13 12:39:59;;;;;;;21.60;4.00;;;18.50;84.40;;;;;;5041012;28;20238;-70
2022/10/13 12:42:34;;;;;;;22.80;4.10;;;18.40;84.50;;;;;;5052250;28;20650;-69
2022/10/13 12:45:02;;;;;;;20.67;4.43;;;18.40;84.00;;;;;;5052444;28;20537;-70
2022/10/13 12:47:38;;;;;;;17.67;3.57;;;18.40;83.90;;;;;;5053297;28;20254;-70
2022/10/13 12:50:33;;;;;;;16.43;3.40;;;18.40;83.80;;;;;;5055156;28;20188;-70
2022/10/13 12:53:11;;;;;;;18.00;4.23;;;18.40;83.70;;;;;;5055539;28;20217;-71
2022/10/13 12:55:57;;;;;;;16.90;3.50;;;18.40;83.30;;;;;;5048789;28;20212;-71
2022/10/13 12:58:27;;;;;;;18.17;3.70;;;18.40;83.40;;;;;;5055824;28;20668;-72
2022/10/13 13:01:24;;;;;;;20.23;3.20;;;18.30;83.20;;;;;;5055399;28;20614;-70
2022/10/13 13:04:01;;;;;;;21.60;3.33;;;18.30;83.30;;;;;;5054583;28;20183;-72
2022/10/13 13:06:34;;;;;;;19.73;3.63;;;18.40;83.10;;;;;;5054894;28;20194;-70
2022/10/13 13:09:21;;;;;;;15.57;3.87;;;18.30;83.20;;;;;;5055356;28;20577;-69